Terminal Aerodrome Forecast
Issued by NWS

Home | Current Version | Previous Version | Text Only | Print | Product List | Glossary On
Versions: 1 2 3 4 5 6 7 8 9 10 11 12 13 14 15 16 17 18 19 20 21 22 23 24 25 26 27 28 29 30 31 32 33 34 35 36 37 38 39 40 41 42 43 44 45 46 47 48 49 50
000
FTAK31 PANC 252132 AAC
TAFADL
TAF AMD
PADL 252132Z 2522/2618 19012G22KT P6SM -SHSN SCT005 BKN015
      TEMPO 2522/2524 1SM -SN BKN006
     FM260800 18008G18KT 5SM -SN BR OVC008
     FM261600 10008KT P6SM SCT015 BKN035=

USA.gov is the U.S. government's official web portal to all federal, state and local government web resources and services.